createdAt,value
2022-12-31T00:01:27.285Z,98545.69
2022-12-31T00:03:54.802Z,98541.34
2022-12-31T00:06:27.102Z,98562.66
2022-12-31T00:08:54.754Z,98563.50
2022-12-31T00:11:22.799Z,98559.06
2022-12-31T00:13:50.336Z,98571.44
2022-12-31T00:16:25.605Z,98560.84
2022-12-31T00:18:54.754Z,98569.66
2022-12-31T00:21:22.439Z,98539.97
2022-12-31T00:23:49.246Z,98564.34
2022-12-31T00:26:18.594Z,98553.13
2022-12-31T00:28:45.428Z,98554.88
2022-12-31T00:31:18.508Z,98529.59
2022-12-31T00:33:45.675Z,98573.38
2022-12-31T00:36:22.444Z,98569.25
2022-12-31T00:38:50.783Z,98560.13
2022-12-31T00:41:18.649Z,98572.50
2022-12-31T00:43:45.823Z,98583.09
2022-12-31T00:46:13.050Z,98584.91
2022-12-31T00:48:39.972Z,98576.97
2022-12-31T00:51:08.992Z,98570.72
2022-12-31T00:53:36.030Z,98569.88
2022-12-31T00:56:08.206Z,98561.44
2022-12-31T00:58:35.264Z,98571.69
2022-12-31T01:01:16.805Z,98575.16
2022-12-31T01:03:44.003Z,98574.53
2022-12-31T01:06:11.176Z,98553.13
2022-12-31T01:08:38.282Z,98560.28
2022-12-31T01:11:24.159Z,98550.38
2022-12-31T01:14:01.043Z,98560.28
2022-12-31T01:16:49.300Z,98560.28
2022-12-31T01:19:19.691Z,98562.91
2022-12-31T01:21:49.519Z,98555.94
2022-12-31T01:24:16.963Z,98557.72
2022-12-31T01:26:44.259Z,98521.31
2022-12-31T01:29:12.041Z,98558.56
2022-12-31T01:31:38.948Z,98550.03
2022-12-31T01:34:07.175Z,98550.38
2022-12-31T01:36:35.705Z,98558.56
2022-12-31T01:39:05.468Z,98544.00
2022-12-31T01:41:35.507Z,98543.66
2022-12-31T01:44:14.033Z,98555.94
2022-12-31T01:46:48.092Z,98551.59
2022-12-31T01:49:24.098Z,98555.94
2022-12-31T01:52:00.434Z,98530.44
2022-12-31T01:54:29.190Z,98558.66
2022-12-31T01:56:56.643Z,98550.72
2022-12-31T01:59:28.339Z,98556.88
2022-12-31T02:01:55.519Z,98557.84
2022-12-31T02:04:25.162Z,98561.31
2022-12-31T02:07:01.594Z,98556.88
2022-12-31T02:09:29.528Z,98555.19
2022-12-31T02:11:56.128Z,98557.84
2022-12-31T02:14:29.012Z,98551.72
2022-12-31T02:17:15.889Z,98540.59
2022-12-31T02:19:59.937Z,98551.72
2022-12-31T02:22:47.646Z,98548.22
2022-12-31T02:25:17.162Z,98548.22
2022-12-31T02:28:14.885Z,98537.75
2022-12-31T02:33:27.908Z,98553.75
2022-12-31T02:36:08.490Z,98559.03
2022-12-31T02:38:39.334Z,98543.59
2022-12-31T02:41:06.317Z,98537.69
2022-12-31T02:43:32.850Z,98548.47
2022-12-31T02:46:18.920Z,98551.09
2022-12-31T02:48:52.638Z,98549.28
2022-12-31T02:51:25.682Z,98541.34
2022-12-31T02:54:12.358Z,98530.56
2022-12-31T02:56:57.370Z,98556.41
2022-12-31T02:59:52.806Z,98559.03
2022-12-31T03:02:23.384Z,98541.16
2022-12-31T03:04:55.832Z,98544.13
2022-12-31T03:07:26.904Z,98539.66
2022-12-31T03:09:54.556Z,98531.72
2022-12-31T03:12:42.453Z,98529.19
2022-12-31T03:15:20.457Z,98540.59
2022-12-31T03:17:54.140Z,98536.31
2022-12-31T03:20:42.092Z,98538.09
2022-12-31T03:23:12.788Z,98536.31
2022-12-31T03:25:39.648Z,98520.44
2022-12-31T03:28:12.749Z,98530.16
2022-12-31T03:30:42.303Z,98508.44
2022-12-31T03:33:09.421Z,98489.69
2022-12-31T03:35:37.471Z,98495.22
2022-12-31T03:38:04.957Z,98506.53
2022-12-31T03:40:32.853Z,98519.66
2022-12-31T03:42:59.628Z,98534.78
2022-12-31T03:45:26.674Z,98545.25
2022-12-31T03:47:53.455Z,98539.94
2022-12-31T03:50:20.557Z,98551.53
2022-12-31T03:52:47.518Z,98552.38
2022-12-31T03:55:15.030Z,98542.72
2022-12-31T03:57:41.827Z,98546.47
2022-12-31T04:00:12.882Z,98529.25
2022-12-31T04:02:39.744Z,98536.13
2022-12-31T04:05:07.659Z,98546.34
2022-12-31T04:07:34.286Z,98526.34
2022-12-31T04:10:00.972Z,98545.63
2022-12-31T04:12:27.681Z,98545.13
2022-12-31T04:14:54.188Z,98547.41
2022-12-31T04:17:21.209Z,98545.97
2022-12-31T04:19:47.853Z,98544.16
2022-12-31T04:22:14.593Z,98554.66
2022-12-31T04:24:43.071Z,98556.44
2022-12-31T04:27:13.675Z,98536.47
2022-12-31T04:29:40.324Z,98535.38
2022-12-31T04:32:10.052Z,98535.38
2022-12-31T04:34:36.797Z,98531.03
2022-12-31T04:37:03.655Z,98522.75
2022-12-31T04:39:30.374Z,98542.59
2022-12-31T04:41:57.209Z,98537.63
2022-12-31T04:44:23.878Z,98553.16
2022-12-31T04:46:51.487Z,98556.75
2022-12-31T04:49:18.330Z,98538.94
2022-12-31T04:51:44.868Z,98567.47
2022-12-31T04:54:11.586Z,98560.84
2022-12-31T04:56:38.269Z,98562.63
2022-12-31T04:59:05.721Z,98544.69
2022-12-31T05:01:33.343Z,98544.81
2022-12-31T05:04:00.359Z,98566.16
2022-12-31T05:06:27.023Z,98575.75
2022-12-31T05:08:53.667Z,98589.97
2022-12-31T05:11:20.398Z,98584.66
2022-12-31T05:13:47.092Z,98579.22
2022-12-31T05:16:13.798Z,98591.97
2022-12-31T05:18:40.535Z,98585.22
2022-12-31T05:21:07.349Z,98590.28
2022-12-31T05:23:34.164Z,98589.34
2022-12-31T05:26:01.973Z,98578.22
2022-12-31T05:28:28.795Z,98586.91
2022-12-31T05:30:56.136Z,98592.19
2022-12-31T05:33:23.194Z,98590.41
2022-12-31T05:35:50.226Z,98586.06
2022-12-31T05:38:16.910Z,98594.00
2022-12-31T05:40:43.629Z,98592.31
2022-12-31T05:43:10.302Z,98578.22
2022-12-31T05:45:37.112Z,98587.03
2022-12-31T05:48:04.286Z,98595.91
2022-12-31T05:50:30.943Z,98584.09
2022-12-31T05:53:03.985Z,98584.50
2022-12-31T05:55:30.709Z,98574.75
2022-12-31T05:57:57.369Z,98582.81
2022-12-31T06:00:24.063Z,98579.31
2022-12-31T06:02:50.707Z,98575.31
2022-12-31T06:05:22.474Z,98593.38
2022-12-31T06:07:52.437Z,98574.59
2022-12-31T06:10:22.078Z,98572.41
2022-12-31T06:12:48.764Z,98597.94
2022-12-31T06:15:15.507Z,98598.88
2022-12-31T06:17:42.168Z,98590.47
2022-12-31T06:20:12.817Z,98613.06
2022-12-31T06:22:40.181Z,98603.34
2022-12-31T06:25:07.043Z,98597.09
2022-12-31T06:27:33.725Z,98601.53
2022-12-31T06:30:00.293Z,98604.19
2022-12-31T06:32:26.933Z,98611.16
2022-12-31T06:34:53.533Z,98612.13
2022-12-31T06:37:20.226Z,98626.19
2022-12-31T06:39:46.713Z,98620.91
2022-12-31T06:42:14.344Z,98622.69
2022-12-31T06:44:40.996Z,98620.06
2022-12-31T06:47:07.678Z,98615.00
2022-12-31T06:49:34.189Z,98600.75
2022-12-31T06:52:00.884Z,98620.91
2022-12-31T06:54:27.542Z,98627.88
2022-12-31T06:56:54.452Z,98586.50
2022-12-31T06:59:29.552Z,98618.59
2022-12-31T07:02:01.534Z,98635.78
2022-12-31T07:04:52.174Z,98626.19
2022-12-31T07:07:56.183Z,98621.88
2022-12-31T07:11:01.560Z,98626.19
2022-12-31T07:13:43.738Z,98613.31
2022-12-31T07:16:57.711Z,98622.69
2022-12-31T07:19:38.295Z,98610.16
2022-12-31T07:22:05.615Z,98631.50
2022-12-31T07:24:32.470Z,98619.03
2022-12-31T07:27:30.627Z,98653.38
2022-12-31T07:30:03.399Z,98662.16
2022-12-31T07:33:04.445Z,98654.22
2022-12-31T07:35:41.684Z,98656.00
2022-12-31T07:38:15.157Z,98648.53
2022-12-31T07:40:51.727Z,98658.66
2022-12-31T07:43:27.327Z,98644.72
2022-12-31T07:46:05.509Z,98639.50
2022-12-31T07:48:32.422Z,98646.16
2022-12-31T07:51:02.053Z,98636.59
2022-12-31T07:53:28.947Z,98645.06
2022-12-31T07:56:01.763Z,98659.47
2022-12-31T07:58:28.305Z,98685.84
2022-12-31T08:00:58.340Z,98678.88
2022-12-31T08:03:43.794Z,98661.03
2022-12-31T08:06:29.171Z,98681.31
2022-12-31T08:09:08.155Z,98646.44
2022-12-31T08:11:46.926Z,98677.78
2022-12-31T08:14:16.830Z,98665.53
2022-12-31T08:16:43.971Z,98659.00
2022-12-31T08:19:32.319Z,98663.13
2022-12-31T08:22:16.170Z,98658.78
2022-12-31T08:24:59.557Z,98675.06
2022-12-31T08:27:40.437Z,98633.72
2022-12-31T08:30:07.255Z,98662.78
2022-12-31T08:32:56.102Z,98653.91
2022-12-31T08:35:48.801Z,98674.19
2022-12-31T08:38:58.341Z,98669.97
2022-12-31T08:41:44.255Z,98682.13
2022-12-31T08:44:35.091Z,98679.59
2022-12-31T08:47:02.575Z,98681.31
2022-12-31T08:49:32.188Z,98678.66
2022-12-31T08:52:00.800Z,98686.59
2022-12-31T08:54:28.513Z,98682.13
2022-12-31T08:57:09.602Z,98697.19
2022-12-31T08:59:53.442Z,98677.63
2022-12-31T09:02:32.321Z,98709.44
2022-12-31T09:05:20.007Z,98704.16
2022-12-31T09:07:58.535Z,98699.69
2022-12-31T09:10:54.096Z,98699.69
2022-12-31T09:13:42.544Z,98691.75
2022-12-31T09:16:12.396Z,98695.25
2022-12-31T09:18:42.897Z,98674.75
2022-12-31T09:21:14.969Z,98670.53
2022-12-31T09:23:43.159Z,98662.50
2022-12-31T09:26:18.812Z,98672.31
2022-12-31T09:28:59.639Z,98667.00
2022-12-31T09:31:59.531Z,98666.88
2022-12-31T09:34:49.238Z,98666.69
2022-12-31T09:37:22.032Z,98683.50
2022-12-31T09:39:49.191Z,98676.28
2022-12-31T09:42:54.762Z,98674.38
2022-12-31T09:45:28.331Z,98677.84
2022-12-31T09:48:13.607Z,98675.13
2022-12-31T09:50:54.101Z,98665.69
2022-12-31T09:53:56.061Z,98673.19
2022-12-31T09:56:44.168Z,98675.75
2022-12-31T09:59:34.066Z,98651.84
2022-12-31T10:02:15.409Z,98640.75
2022-12-31T10:05:21.691Z,98672.13
2022-12-31T10:08:09.625Z,98664.09
2022-12-31T10:10:53.441Z,98665.88
2022-12-31T10:13:28.830Z,98670.22
2022-12-31T10:16:14.031Z,98675.50
2022-12-31T10:19:05.310Z,98663.97
2022-12-31T10:21:37.825Z,98666.59
2022-12-31T10:24:30.238Z,98664.69
2022-12-31T10:27:16.474Z,98663.75
2022-12-31T10:29:47.657Z,98664.47
2022-12-31T10:32:34.130Z,98646.81
2022-12-31T10:35:38.765Z,98653.75
2022-12-31T10:38:08.106Z,98648.41
2022-12-31T10:40:53.275Z,98655.41
2022-12-31T10:43:57.497Z,98654.31
2022-12-31T10:46:45.698Z,98662.13
2022-12-31T10:49:18.394Z,98660.31
2022-12-31T10:52:22.825Z,98660.22
2022-12-31T10:55:05.107Z,98661.88
2022-12-31T10:57:47.831Z,98651.31
2022-12-31T11:00:22.339Z,98660.09
2022-12-31T11:03:23.414Z,98662.88
2022-12-31T11:06:21.628Z,98674.28
2022-12-31T11:09:04.987Z,98670.81
2022-12-31T11:11:45.033Z,98657.59
2022-12-31T11:14:20.332Z,98651.31
2022-12-31T11:17:12.477Z,98642.53
2022-12-31T11:19:54.099Z,98653.94
2022-12-31T11:22:29.503Z,98647.69
2022-12-31T11:25:16.214Z,98649.53
2022-12-31T11:28:10.618Z,98649.53
2022-12-31T11:30:55.740Z,98651.31
2022-12-31T11:33:44.139Z,98653.00
2022-12-31T11:36:30.170Z,98660.09
2022-12-31T11:39:30.740Z,98655.66
2022-12-31T11:42:19.822Z,98661.69
2022-12-31T11:44:59.696Z,98665.16
2022-12-31T11:48:20.595Z,98662.50
2022-12-31T11:50:58.012Z,98642.16
2022-12-31T11:53:43.520Z,98655.44
2022-12-31T11:56:18.323Z,98650.97
2022-12-31T11:58:53.527Z,98617.28
2022-12-31T12:01:25.676Z,98645.56
2022-12-31T12:03:52.779Z,98605.41
2022-12-31T12:06:28.599Z,98619.53
2022-12-31T12:09:15.786Z,98632.22
2022-12-31T12:11:43.332Z,98620.41
2022-12-31T12:14:28.833Z,98638.13
2022-12-31T12:17:04.087Z,98633.66
2022-12-31T12:19:33.961Z,98636.94
2022-12-31T12:22:14.378Z,98636.94
2022-12-31T12:24:53.013Z,98631.03
2022-12-31T12:27:23.636Z,98633.53
2022-12-31T12:29:50.363Z,98642.09
2022-12-31T12:32:20.632Z,98627.16
2022-12-31T12:34:49.904Z,98659.69
2022-12-31T12:37:34.576Z,98640.41
2022-12-31T12:40:21.501Z,98648.25
2022-12-31T12:42:52.143Z,98608.13
2022-12-31T12:45:20.771Z,98633.22
2022-12-31T12:48:01.350Z,98627.44
2022-12-31T12:50:45.809Z,98604.88
2022-12-31T12:53:18.450Z,98638.50
2022-12-31T12:56:02.980Z,98471.09
2022-12-31T12:58:52.912Z,98642.97
2022-12-31T13:01:38.456Z,98642.84
2022-12-31T13:04:37.919Z,98639.25
2022-12-31T13:07:32.838Z,98639.94
2022-12-31T13:10:36.933Z,98620.38
2022-12-31T13:13:25.813Z,98639.59
2022-12-31T13:16:20.843Z,98634.19
2022-12-31T13:18:59.933Z,98636.75
2022-12-31T13:21:44.539Z,98633.97
2022-12-31T13:24:14.125Z,98633.84
2022-12-31T13:26:55.864Z,98646.13
2022-12-31T13:29:27.749Z,98647.69
2022-12-31T13:31:57.108Z,98633.50
2022-12-31T13:34:34.015Z,98642.28
2022-12-31T13:37:06.837Z,98623.53
2022-12-31T13:39:40.849Z,98634.94
2022-12-31T13:42:21.188Z,98648.19
2022-12-31T13:45:04.076Z,98648.09
2022-12-31T13:47:37.633Z,98646.41
2022-12-31T13:50:17.779Z,98639.28
2022-12-31T13:53:00.112Z,98655.31
2022-12-31T13:55:38.207Z,98662.41
2022-12-31T13:58:40.897Z,98598.97
2022-12-31T14:01:34.025Z,98642.13
2022-12-31T14:04:33.041Z,98666.84
2022-12-31T14:09:24.978Z,98618.88
2022-12-31T14:11:51.794Z,98666.72
2022-12-31T14:14:34.895Z,98665.06
2022-12-31T14:17:17.742Z,98585.50
2022-12-31T14:20:06.133Z,98643.13
2022-12-31T14:22:38.173Z,98665.91
2022-12-31T14:25:09.939Z,98626.47
2022-12-31T14:27:43.169Z,98674.69
2022-12-31T14:30:22.238Z,98668.69
2022-12-31T14:32:54.924Z,98673.72
2022-12-31T14:36:14.891Z,98669.00
2022-12-31T14:38:52.346Z,98664.47
2022-12-31T14:41:46.893Z,98680.84
2022-12-31T14:44:32.877Z,98668.88
2022-12-31T14:47:12.891Z,98666.84
2022-12-31T14:50:06.118Z,98665.16
2022-12-31T14:52:37.914Z,98671.31
2022-12-31T14:55:14.993Z,98671.31
2022-12-31T14:58:26.007Z,98674.06
2022-12-31T15:00:41.012Z,98672.28
2022-12-31T15:03:14.007Z,98680.22
2022-12-31T15:05:55.242Z,98681.31
2022-12-31T15:08:27.967Z,98683.00
2022-12-31T15:11:03.667Z,98687.31
2022-12-31T15:13:56.626Z,98678.53
2022-12-31T15:16:37.601Z,98656.72
2022-12-31T15:19:19.211Z,98665.41
2022-12-31T15:22:23.268Z,98674.19
2022-12-31T15:24:50.343Z,98679.59
2022-12-31T15:27:45.891Z,98685.72
2022-12-31T15:30:39.842Z,98688.38
2022-12-31T15:33:20.362Z,98706.09
2022-12-31T15:35:53.956Z,98690.78
2022-12-31T15:38:33.461Z,98695.84
2022-12-31T15:41:00.856Z,98698.47
2022-12-31T15:43:49.125Z,98703.44
2022-12-31T15:46:42.882Z,98710.53
2022-12-31T15:49:23.135Z,98704.41
2022-12-31T15:52:07.473Z,98706.09
2022-12-31T15:54:45.088Z,98662.28
2022-12-31T15:57:19.543Z,98709.69
2022-12-31T15:59:46.897Z,98704.72
2022-12-31T16:02:24.145Z,98705.13
2022-12-31T16:04:51.918Z,98712.13
2022-12-31T16:07:18.960Z,98709.69
2022-12-31T16:09:52.699Z,98723.44
2022-12-31T16:12:25.395Z,98721.53
2022-12-31T16:14:58.450Z,98722.34
2022-12-31T16:17:28.187Z,98717.91
2022-12-31T16:19:56.953Z,98724.03
2022-12-31T16:22:29.302Z,98714.31
2022-12-31T16:27:52.931Z,98732.84
2022-12-31T16:30:22.762Z,98725.47
2022-12-31T16:32:50.493Z,98727.66
2022-12-31T16:35:24.354Z,98718.38
2022-12-31T16:38:30.718Z,98733.81
2022-12-31T16:41:16.105Z,98728.22
2022-12-31T16:43:44.649Z,98741.88
2022-12-31T16:46:15.053Z,98739.31
2022-12-31T16:48:46.340Z,98753.31
2022-12-31T16:51:21.228Z,98753.19
2022-12-31T16:53:49.123Z,98739.09
2022-12-31T16:56:24.911Z,98734.75
2022-12-31T16:59:00.101Z,98744.28
2022-12-31T17:01:30.490Z,98738.16
2022-12-31T17:04:04.899Z,98750.53
2022-12-31T17:06:33.601Z,98746.94
2022-12-31T17:09:30.787Z,98745.13
2022-12-31T17:12:14.857Z,98746.09
2022-12-31T17:14:50.425Z,98750.31
2022-12-31T17:17:25.600Z,98761.75
2022-12-31T17:19:58.215Z,98766.22
2022-12-31T17:22:34.347Z,98758.25
2022-12-31T17:25:07.508Z,98759.09
2022-12-31T17:27:36.244Z,98748.50
2022-12-31T17:30:35.369Z,98739.72
2022-12-31T17:33:03.647Z,98749.38
2022-12-31T17:35:32.882Z,98750.19
2022-12-31T17:38:18.207Z,98751.91
2022-12-31T17:40:51.602Z,98758.97
2022-12-31T17:43:23.713Z,98744.91
2022-12-31T17:45:52.746Z,98756.31
2022-12-31T17:50:54.801Z,98761.63
2022-12-31T17:53:21.570Z,98739.78
2022-12-31T17:55:53.330Z,98742.72
2022-12-31T17:58:48.951Z,98758.97
2022-12-31T18:01:18.266Z,98755.94
2022-12-31T18:03:45.564Z,98754.13
2022-12-31T18:06:16.643Z,98773.19
2022-12-31T18:08:44.139Z,98743.28
2022-12-31T18:11:18.145Z,98769.69
2022-12-31T18:13:45.270Z,98759.34
2022-12-31T18:16:11.928Z,98741.72
2022-12-31T18:18:40.114Z,98758.13
2022-12-31T18:21:24.428Z,98723.72
2022-12-31T18:23:51.522Z,98741.25
2022-12-31T18:26:23.168Z,98733.84
2022-12-31T18:28:50.992Z,98726.63
2022-12-31T18:31:22.144Z,98779.22
2022-12-31T18:33:49.991Z,98738.53
2022-12-31T18:36:18.196Z,98774.03
2022-12-31T18:38:44.962Z,98772.13
2022-12-31T18:41:24.426Z,98769.47
2022-12-31T18:43:51.235Z,98771.25
2022-12-31T18:46:21.380Z,98732.53
2022-12-31T18:48:48.443Z,98764.63
2022-12-31T18:51:17.616Z,98772.78
2022-12-31T18:53:45.046Z,98782.81
2022-12-31T18:56:13.781Z,98779.34
2022-12-31T18:58:41.314Z,98747.00
2022-12-31T19:01:27.154Z,98778.50
2022-12-31T19:04:01.816Z,98759.06
2022-12-31T19:06:29.659Z,98774.16
2022-12-31T19:08:56.836Z,98760.97
2022-12-31T19:11:23.560Z,98764.69
2022-12-31T19:13:50.582Z,98783.88
2022-12-31T19:16:17.966Z,98758.16
2022-12-31T19:18:45.213Z,98798.94
2022-12-31T19:21:19.162Z,98806.03
2022-12-31T19:23:46.485Z,98816.63
2022-12-31T19:26:18.913Z,98767.66
2022-12-31T19:28:46.676Z,98794.59
2022-12-31T19:31:13.953Z,98792.91
2022-12-31T19:33:42.775Z,98784.84
2022-12-31T19:36:16.007Z,98774.19
2022-12-31T19:38:43.758Z,98784.75
2022-12-31T19:41:19.099Z,98764.34
2022-12-31T19:43:47.457Z,98764.47
2022-12-31T19:46:16.247Z,98774.03
2022-12-31T19:48:43.523Z,98778.25
2022-12-31T19:51:12.193Z,98779.94
2022-12-31T19:53:39.356Z,98790.44
2022-12-31T19:56:06.627Z,98792.94
2022-12-31T19:58:33.316Z,98786.00
2022-12-31T20:01:03.214Z,98786.69
2022-12-31T20:03:32.490Z,98797.22
2022-12-31T20:06:08.378Z,98785.75
2022-12-31T20:08:37.657Z,98798.78
2022-12-31T20:11:24.481Z,98778.50
2022-12-31T20:13:52.620Z,98803.00
2022-12-31T20:16:21.237Z,98799.41
2022-12-31T20:18:48.892Z,98787.94
2022-12-31T20:21:24.117Z,98800.00
2022-12-31T20:23:52.178Z,98796.41
2022-12-31T20:26:20.056Z,98767.78
2022-12-31T20:28:47.183Z,98807.63
2022-12-31T20:31:20.599Z,98810.28
2022-12-31T20:33:47.433Z,98816.31
2022-12-31T20:36:16.315Z,98793.47
2022-12-31T20:38:44.023Z,98781.66
2022-12-31T20:41:13.470Z,98817.06
2022-12-31T20:43:44.005Z,98821.38
2022-12-31T20:46:15.584Z,98814.75
2022-12-31T20:48:43.655Z,98812.38
2022-12-31T20:51:10.701Z,98809.81
2022-12-31T20:53:37.457Z,98810.56
2022-12-31T20:56:08.615Z,98801.16
2022-12-31T20:58:35.598Z,98799.00
2022-12-31T21:01:06.595Z,98793.72
2022-12-31T21:04:04.187Z,98794.66
2022-12-31T21:06:23.404Z,98778.59
2022-12-31T21:08:50.597Z,98791.69
2022-12-31T21:11:36.151Z,98795.16
2022-12-31T21:14:02.896Z,98778.97
2022-12-31T21:16:29.519Z,98788.41
2022-12-31T21:18:56.249Z,98798.53
2022-12-31T21:21:23.134Z,98785.63
2022-12-31T21:23:50.178Z,98759.09
2022-12-31T21:26:19.898Z,98784.34
2022-12-31T21:28:46.749Z,98797.47
2022-12-31T21:31:14.852Z,98796.50
2022-12-31T21:33:46.683Z,98791.22
2022-12-31T21:36:13.803Z,98796.50
2022-12-31T21:38:40.624Z,98805.28
2022-12-31T21:41:09.325Z,98784.91
2022-12-31T21:43:36.106Z,98803.50
2022-12-31T21:46:05.813Z,98792.63
2022-12-31T21:48:33.212Z,98798.75
2022-12-31T21:51:13.140Z,98800.47
2022-12-31T21:53:40.552Z,98808.91
2022-12-31T21:56:09.613Z,98775.97
2022-12-31T21:58:38.120Z,98803.59
2022-12-31T22:01:24.107Z,98771.63
2022-12-31T22:03:51.149Z,98803.72
2022-12-31T22:06:20.762Z,98809.03
2022-12-31T22:08:55.623Z,98809.03
2022-12-31T22:11:25.228Z,98812.63
2022-12-31T22:13:52.801Z,98812.63
2022-12-31T22:16:26.824Z,98817.09
2022-12-31T22:18:55.712Z,98791.41
2022-12-31T22:21:24.270Z,98824.19
2022-12-31T22:23:56.132Z,98826.84
2022-12-31T22:26:26.588Z,98825.16
2022-12-31T22:28:54.639Z,98827.81
2022-12-31T22:31:26.150Z,98811.19
2022-12-31T22:33:53.318Z,98817.22
2022-12-31T22:36:22.187Z,98813.72
2022-12-31T22:38:50.857Z,98807.66
2022-12-31T22:41:20.331Z,98802.28
2022-12-31T22:43:49.173Z,98814.56
2022-12-31T22:46:21.522Z,98795.00
2022-12-31T22:48:48.334Z,98804.06
2022-12-31T22:51:16.264Z,98808.41
2022-12-31T22:53:43.555Z,98805.75
2022-12-31T22:56:13.125Z,98789.94
2022-12-31T22:58:41.935Z,98782.03
2022-12-31T23:01:19.148Z,98779.56
2022-12-31T23:03:47.585Z,98764.44
2022-12-31T23:06:14.682Z,98808.41
2022-12-31T23:08:41.878Z,98815.41
2022-12-31T23:11:11.023Z,98779.34
2022-12-31T23:14:01.884Z,98764.56
2022-12-31T23:16:48.221Z,98808.28
2022-12-31T23:19:34.830Z,98787.28
2022-12-31T23:22:20.000Z,98808.28
2022-12-31T23:24:47.061Z,98787.53
2022-12-31T23:29:27.819Z,98804.81
2022-12-31T23:31:54.782Z,98791.19
2022-12-31T23:34:24.278Z,98795.28
2022-12-31T23:36:50.990Z,98775.13
2022-12-31T23:39:17.624Z,98765.91
2022-12-31T23:41:44.290Z,98794.03
2022-12-31T23:44:14.007Z,98816.84
2022-12-31T23:46:40.889Z,98794.66
2022-12-31T23:49:07.661Z,98793.44
2022-12-31T23:51:36.557Z,98765.50
2022-12-31T23:54:06.756Z,98808.53
2022-12-31T23:56:33.893Z,98778.09
2022-12-31T23:59:01.106Z,98807.94
